Terminal Aerodrome Forecast
Issued by NWS Pittsburgh, PA

Current Version | Previous Version | Graphics & Text | Print | Product List | Glossary On
Versions: 1 2 3 4 5 6 7 8 9 10 11 12 13 14 15 16 17 18 19 20 21 22 23 24 25 26 27 28
000
FTUS41 KPBZ 261700
TAFPIT
TAF
KPIT 261730Z 2618/2724 36008KT P6SM -SHSN OVC040
      TEMPO 2620/2623 2SM -SHSN BKN025
     FM262300 33010KT P6SM BKN025
     FM271200 30005KT P6SM BKN035=

USA.gov is the U.S. government's official web portal to all federal, state and local government web resources and services.